Time;durP1;ratioP1;P1;durP2;ratioP2;P2;SDS_P1;SDS_P2;PMS_P1;PMS_P2;Temp;Humidity;BMP_temperature;BMP_pressure;BME280_temperature;BME280_humidity;BME280_pressure;Samples;Min_cycle;Max_cycle;Signal;HPM_P1;HPM_P2
2022/11/24 00:01:14;;;;;;;9.57;2.65;;;7.40;99.90;;;;;;5076082;28;20032;-90
2022/11/24 00:03:40;;;;;;;8.38;2.25;;;7.50;99.90;;;;;;5087023;28;20032;-92
2022/11/24 00:06:10;;;;;;;7.05;2.42;;;7.50;99.90;;;;;;5013248;28;20043;-93
2022/11/24 00:08:39;;;;;;;8.55;2.10;;;7.50;99.90;;;;;;5003446;28;20016;-90
2022/11/24 00:11:08;;;;;;;14.65;2.95;;;7.50;99.90;;;;;;5075807;28;20441;-91
2022/11/24 00:13:34;;;;;;;8.65;2.22;;;7.50;99.90;;;;;;5075918;28;20126;-90
2022/11/24 00:16:09;;;;;;;14.23;2.47;;;7.60;99.90;;;;;;5087697;28;20032;-89
2022/11/24 00:18:35;;;;;;;11.73;2.25;;;7.60;99.90;;;;;;5104426;28;20035;-91
2022/11/24 00:21:01;;;;;;;12.77;2.83;;;7.60;99.90;;;;;;5081066;28;20490;-90
2022/11/24 00:23:31;;;;;;;10.43;2.15;;;7.60;99.90;;;;;;5086267;28;20044;-90
2022/11/24 00:26:13;;;;;;;12.80;1.80;;;7.50;99.90;;;;;;5089181;28;20070;-91
2022/11/24 00:28:43;;;;;;;8.52;2.35;;;7.50;99.90;;;;;;5126006;28;20423;-91
2022/11/24 00:31:37;;;;;;;9.98;2.05;;;7.40;99.90;;;;;;5103033;28;20043;-90
2022/11/24 00:34:12;;;;;;;9.75;2.08;;;7.40;99.90;;;;;;5095060;28;20068;-91
2022/11/24 00:36:39;;;;;;;8.77;1.80;;;7.40;99.90;;;;;;5104960;28;20479;-90
2022/11/24 00:39:10;;;;;;;11.00;2.50;;;7.50;99.90;;;;;;5106559;28;20039;-91
2022/11/24 00:41:36;;;;;;;10.05;1.90;;;7.50;99.90;;;;;;5102919;28;20530;-90
2022/11/24 00:44:09;;;;;;;10.82;2.22;;;7.50;99.90;;;;;;5101953;28;20392;-90
2022/11/24 00:46:36;;;;;;;10.23;2.20;;;7.60;99.90;;;;;;5109818;28;20059;-90
2022/11/24 00:49:03;;;;;;;10.52;2.38;;;7.60;99.90;;;;;;5103590;28;20031;-90
2022/11/24 00:51:30;;;;;;;12.02;2.72;;;7.70;99.90;;;;;;5126495;28;20474;-90
2022/11/24 00:54:06;;;;;;;8.15;1.73;;;7.70;99.90;;;;;;5107538;28;20043;-89
2022/11/24 00:56:35;;;;;;;12.65;2.15;;;7.70;99.90;;;;;;5119769;27;20069;-90
2022/11/24 00:59:08;;;;;;;8.23;1.85;;;7.70;99.90;;;;;;5100548;28;20471;-89
2022/11/24 01:01:35;;;;;;;7.30;2.17;;;7.70;99.90;;;;;;5108393;27;20032;-90
2022/11/24 01:04:03;;;;;;;14.57;2.80;;;7.70;99.90;;;;;;5110420;28;20165;-90
2022/11/24 01:06:32;;;;;;;10.75;2.10;;;7.60;99.90;;;;;;5119371;27;20147;-90
2022/11/24 01:09:01;;;;;;;10.82;2.28;;;7.70;99.90;;;;;;5115673;27;20125;-91
2022/11/24 01:12:00;;;;;;;9.85;2.97;;;7.70;99.90;;;;;;5101226;27;20023;-90
2022/11/24 01:14:21;;;;;;;13.98;3.00;;;7.70;99.90;;;;;;5132022;27;20084;-90
2022/11/24 01:16:48;;;;;;;9.98;2.63;;;7.70;99.90;;;;;;5127517;27;20038;-91
2022/11/24 01:19:14;;;;;;;11.88;1.95;;;7.70;99.90;;;;;;5105440;27;20092;-91
2022/11/24 01:21:40;;;;;;;19.13;3.25;;;7.70;99.90;;;;;;5115407;27;20041;-91
2022/11/24 01:24:06;;;;;;;17.70;3.17;;;7.80;99.90;;;;;;5112030;28;20088;-90
2022/11/24 01:26:32;;;;;;;14.95;2.78;;;7.80;99.90;;;;;;5088375;28;20109;-91
2022/11/24 01:28:58;;;;;;;10.35;2.10;;;7.80;99.90;;;;;;5089706;28;20036;-89
2022/11/24 01:31:25;;;;;;;8.32;2.03;;;7.80;99.90;;;;;;5075246;28;20109;-90
2022/11/24 01:33:52;;;;;;;6.25;1.85;;;7.80;99.90;;;;;;5091179;28;20031;-90
2022/11/24 01:36:18;;;;;;;9.00;2.05;;;7.70;99.90;;;;;;5084797;28;20039;-90
2022/11/24 01:38:48;;;;;;;13.20;2.50;;;7.70;99.90;;;;;;5095803;28;20028;-90
2022/11/24 01:41:20;;;;;;;9.68;1.92;;;7.70;99.90;;;;;;5077079;28;20028;-90
2022/11/24 01:43:47;;;;;;;7.95;1.85;;;7.70;99.90;;;;;;5077951;28;20041;-90
2022/11/24 01:46:38;;;;;;;11.95;2.00;;;7.70;99.90;;;;;;5098402;28;20028;-90
2022/11/24 01:49:26;;;;;;;12.98;2.28;;;7.80;99.90;;;;;;5083788;28;20460;-90
2022/11/24 01:52:19;;;;;;;12.32;2.70;;;7.80;99.90;;;;;;5075989;28;20471;-91
2022/11/24 01:54:55;;;;;;;6.32;1.85;;;7.80;99.90;;;;;;5066774;28;20052;-90
2022/11/24 01:57:31;;;;;;;11.23;1.98;;;7.80;99.90;;;;;;5081919;28;20029;-90
2022/11/24 02:00:04;;;;;;;7.60;1.98;;;7.70;99.90;;;;;;5066659;28;20040;-90
2022/11/24 02:02:30;;;;;;;8.02;1.83;;;7.70;99.90;;;;;;5077690;28;20032;-91
2022/11/24 02:05:03;;;;;;;9.13;2.05;;;7.60;99.90;;;;;;5086879;28;20039;-91
2022/11/24 02:07:29;;;;;;;10.05;1.90;;;7.50;99.90;;;;;;5096856;28;20035;-90
2022/11/24 02:09:59;;;;;;;10.50;2.13;;;7.50;99.90;;;;;;5077376;28;20059;-90
2022/11/24 02:12:30;;;;;;;13.10;2.45;;;7.60;99.90;;;;;;5095624;28;20491;-90
2022/11/24 02:14:59;;;;;;;8.77;1.85;;;7.60;99.90;;;;;;5078465;28;20054;-90
2022/11/24 02:17:31;;;;;;;9.50;2.25;;;7.70;99.90;;;;;;5098445;28;20052;-90
2022/11/24 02:20:09;;;;;;;9.55;2.15;;;7.60;99.90;;;;;;5103846;28;20028;-90
2022/11/24 02:22:55;;;;;;;10.68;1.98;;;7.60;99.90;;;;;;5073032;28;20459;-89
2022/11/24 02:25:54;;;;;;;8.95;1.55;;;7.60;99.90;;;;;;5080586;28;20025;-89
2022/11/24 02:28:22;;;;;;;7.95;2.08;;;7.70;99.90;;;;;;5098196;27;20043;-89
2022/11/24 02:30:49;;;;;;;13.65;2.15;;;7.70;99.90;;;;;;5117261;27;20107;-89
2022/11/24 02:33:15;;;;;;;9.75;1.92;;;7.70;99.90;;;;;;5114438;27;20098;-89
2022/11/24 02:35:41;;;;;;;8.77;1.92;;;7.80;99.90;;;;;;5123597;27;20038;-88
2022/11/24 02:38:12;;;;;;;7.38;2.00;;;7.70;99.90;;;;;;5116506;27;20027;-89
2022/11/24 02:40:45;;;;;;;10.43;1.58;;;7.70;99.90;;;;;;5125961;27;20036;-89
2022/11/24 02:43:16;;;;;;;;;;;7.70;99.90;;;;;;5097393;28;20036;-90
2022/11/24 02:45:46;;;;;;;7.53;1.70;;;7.60;99.90;;;;;;5097368;28;20041;-90
2022/11/24 02:48:14;;;;;;;6.25;1.70;;;7.60;99.90;;;;;;5109717;28;20066;-90
2022/11/24 02:50:39;;;;;;;12.32;2.40;;;7.60;99.90;;;;;;5097200;28;20032;-90
2022/11/24 02:53:05;;;;;;;10.00;1.95;;;7.60;99.90;;;;;;5122520;27;20115;-90
2022/11/24 02:55:31;;;;;;;10.57;2.03;;;7.50;99.90;;;;;;5096548;28;20458;-89
2022/11/24 02:57:57;;;;;;;10.95;2.42;;;7.50;99.90;;;;;;5096280;28;20484;-89
2022/11/24 03:00:23;;;;;;;8.57;1.67;;;7.40;99.90;;;;;;5095884;28;20100;-89
2022/11/24 03:02:49;;;;;;;9.32;1.75;;;7.40;99.90;;;;;;5096652;28;20466;-89
2022/11/24 03:05:18;;;;;;;9.93;2.17;;;7.30;99.90;;;;;;5115357;27;20444;-89
2022/11/24 03:07:47;;;;;;;10.27;2.00;;;7.30;99.90;;;;;;5096391;28;20052;-91
2022/11/24 03:10:13;;;;;;;8.95;1.65;;;7.30;99.90;;;;;;5092775;27;20044;-89
2022/11/24 03:12:42;;;;;;;10.68;2.22;;;7.30;99.90;;;;;;5104714;28;20036;-89
2022/11/24 03:15:11;;;;;;;12.40;2.30;;;7.30;99.90;;;;;;5115005;28;20493;-89
2022/11/24 03:17:39;;;;;;;12.73;3.28;;;7.30;99.90;;;;;;5093329;28;20024;-89
2022/11/24 03:20:05;;;;;;;9.77;2.45;;;7.30;99.90;;;;;;5095913;28;20166;-89
2022/11/24 03:22:32;;;;;;;9.40;2.00;;;7.30;99.90;;;;;;5114985;27;20111;-89
2022/11/24 03:25:06;;;;;;;14.80;2.80;;;7.40;99.90;;;;;;5115703;27;20039;-89
2022/11/24 03:27:35;;;;;;;11.60;2.92;;;7.40;99.90;;;;;;5106887;27;20054;-88
2022/11/24 03:30:03;;;;;;;13.15;2.30;;;7.30;99.90;;;;;;5098398;28;20039;-90
2022/11/24 03:32:29;;;;;;;20.90;2.92;;;7.40;99.90;;;;;;5115997;27;20045;-89
2022/11/24 03:35:04;;;;;;;17.60;3.03;;;7.40;99.90;;;;;;5116227;27;20053;-89
2022/11/24 03:37:30;;;;;;;13.90;2.63;;;7.60;99.90;;;;;;5103989;28;20024;-89
2022/11/24 03:39:59;;;;;;;10.65;2.30;;;7.60;99.90;;;;;;5114743;27;20035;-89
2022/11/24 03:42:28;;;;;;;19.10;3.10;;;7.70;99.90;;;;;;5100718;28;20475;-89
2022/11/24 03:44:57;;;;;;;15.93;2.45;;;7.80;99.90;;;;;;5095993;28;20080;-89
2022/11/24 03:47:28;;;;;;;12.18;2.30;;;7.80;99.90;;;;;;5083072;28;20063;-88
2022/11/24 03:49:54;;;;;;;11.55;2.22;;;7.80;99.90;;;;;;5128642;27;20038;-89
2022/11/24 03:52:20;;;;;;;11.68;2.67;;;7.80;99.90;;;;;;5116315;27;20035;-89
2022/11/24 03:54:46;;;;;;;8.25;1.98;;;7.80;99.90;;;;;;5114421;27;20106;-89
2022/11/24 03:57:13;;;;;;;11.48;2.20;;;7.80;99.90;;;;;;5103919;27;20028;-89
2022/11/24 03:59:45;;;;;;;15.32;3.17;;;7.70;99.90;;;;;;5132410;27;20035;-89
2022/11/24 04:02:19;;;;;;;17.65;3.63;;;7.70;99.90;;;;;;5112127;27;20031;-88
2022/11/24 04:04:49;;;;;;;11.98;2.70;;;7.70;99.90;;;;;;5116089;27;20041;-89
2022/11/24 04:07:15;;;;;;;15.48;2.80;;;7.60;99.90;;;;;;5104678;28;20127;-88
2022/11/24 04:09:42;;;;;;;11.25;2.30;;;7.70;99.90;;;;;;5095719;28;20059;-89
2022/11/24 04:14:55;;;;;;;12.25;2.97;;;7.70;99.90;;;;;;5113671;28;20050;-89
2022/11/24 04:17:23;;;;;;;12.75;2.25;;;7.70;99.90;;;;;;5105419;28;20032;-91
2022/11/24 04:19:49;;;;;;;14.82;2.80;;;7.70;99.90;;;;;;5113493;28;20044;-89
2022/11/24 04:22:19;;;;;;;13.35;2.95;;;7.70;99.90;;;;;;5103052;28;20471;-90
2022/11/24 04:24:47;;;;;;;16.13;2.83;;;7.70;99.90;;;;;;5095603;28;20106;-90
2022/11/24 04:27:13;;;;;;;11.82;2.45;;;7.70;99.90;;;;;;5100081;28;20048;-90
2022/11/24 04:29:38;;;;;;;10.82;2.38;;;7.70;99.90;;;;;;5096923;28;20548;-90
2022/11/24 04:32:07;;;;;;;12.90;2.47;;;7.60;99.90;;;;;;5118398;28;20032;-90
2022/11/24 04:34:34;;;;;;;13.23;2.50;;;7.60;99.90;;;;;;5100055;28;20547;-89
2022/11/24 04:37:03;;;;;;;12.23;3.25;;;7.60;99.90;;;;;;5100354;28;20027;-90
2022/11/24 04:39:34;;;;;;;13.80;2.72;;;7.60;99.90;;;;;;5100003;28;20032;-90
2022/11/24 04:42:00;;;;;;;12.15;2.50;;;7.60;99.90;;;;;;5117901;27;20134;-90
2022/11/24 04:44:28;;;;;;;15.35;2.72;;;7.70;99.90;;;;;;5091556;28;20031;-89
2022/11/24 04:47:00;;;;;;;15.82;2.90;;;7.70;99.90;;;;;;5095112;28;20028;-89
2022/11/24 04:49:32;;;;;;;10.23;2.47;;;7.70;99.90;;;;;;5117731;28;20032;-89
2022/11/24 04:52:00;;;;;;;11.40;2.50;;;7.70;99.90;;;;;;5099138;28;20123;-89
2022/11/24 04:54:26;;;;;;;8.77;2.15;;;7.70;99.90;;;;;;5110627;27;20087;-89
2022/11/24 04:56:56;;;;;;;12.15;2.20;;;7.70;99.90;;;;;;5101915;28;20474;-89
2022/11/24 04:59:21;;;;;;;13.27;2.40;;;7.70;99.90;;;;;;5099666;28;20069;-89
2022/11/24 05:01:47;;;;;;;9.40;2.03;;;7.70;99.90;;;;;;5098142;28;20405;-89
2022/11/24 05:04:14;;;;;;;13.27;2.22;;;7.70;99.90;;;;;;5098845;28;20024;-88
2022/11/24 05:06:46;;;;;;;11.43;2.05;;;7.70;99.90;;;;;;5103479;27;20077;-88
2022/11/24 05:09:16;;;;;;;9.82;2.17;;;7.70;99.90;;;;;;5106059;28;20034;-88
2022/11/24 05:11:43;;;;;;;11.07;3.35;;;7.70;99.90;;;;;;5099229;28;20024;-89
2022/11/24 05:14:09;;;;;;;13.20;2.33;;;7.80;99.90;;;;;;5098852;28;20082;-88
2022/11/24 05:16:37;;;;;;;12.32;2.88;;;7.90;99.90;;;;;;5111812;28;20047;-89
2022/11/24 05:19:05;;;;;;;15.35;2.63;;;7.90;99.90;;;;;;5098980;28;20489;-89
2022/11/24 05:21:34;;;;;;;12.52;1.95;;;8.00;99.90;;;;;;5099278;28;20107;-89
2022/11/24 05:24:00;;;;;;;10.35;2.00;;;8.10;99.90;;;;;;5112079;27;20063;-89
2022/11/24 05:26:30;;;;;;;8.30;2.35;;;8.10;99.90;;;;;;5097183;28;20067;-89
2022/11/24 05:28:56;;;;;;;10.52;2.55;;;8.10;99.90;;;;;;5095352;28;20043;-88
2022/11/24 05:31:22;;;;;;;10.30;1.98;;;8.20;99.90;;;;;;5103592;28;20386;-89
2022/11/24 05:33:50;;;;;;;7.82;1.65;;;8.20;99.90;;;;;;5116362;27;20313;-89
2022/11/24 05:39:03;;;;;;;7.10;1.85;;;8.20;99.90;;;;;;5096664;28;20107;-89
2022/11/24 05:41:31;;;;;;;9.18;1.77;;;8.20;99.90;;;;;;5096471;28;20063;-89
2022/11/24 05:44:00;;;;;;;9.23;2.05;;;8.20;99.90;;;;;;5096760;28;20040;-89
2022/11/24 05:46:28;;;;;;;8.85;1.98;;;8.20;99.90;;;;;;5106471;28;20096;-89
2022/11/24 05:48:57;;;;;;;7.43;2.05;;;8.20;99.90;;;;;;5098474;28;20105;-88
2022/11/24 05:51:29;;;;;;;11.02;1.77;;;8.20;99.90;;;;;;5088578;28;20040;-89
2022/11/24 05:53:59;;;;;;;9.90;2.60;;;8.20;99.90;;;;;;5096011;28;20025;-88
2022/11/24 05:56:28;;;;;;;8.40;2.05;;;8.20;99.90;;;;;;5095181;28;20042;-89
2022/11/24 05:58:54;;;;;;;7.25;1.95;;;8.20;99.90;;;;;;5099061;27;20115;-89
2022/11/24 06:01:34;;;;;;;6.43;1.90;;;8.10;99.90;;;;;;5108262;28;20126;-89
2022/11/24 06:04:00;;;;;;;6.72;1.70;;;8.10;99.90;;;;;;5103838;28;20130;-89
2022/11/24 06:06:29;;;;;;;5.57;1.40;;;8.00;99.90;;;;;;5115855;28;20494;-89
2022/11/24 06:08:55;;;;;;;8.48;1.65;;;8.00;99.90;;;;;;5106784;28;20035;-89
2022/11/24 06:11:26;;;;;;;4.20;1.35;;;8.00;99.90;;;;;;5108407;28;20036;-89
2022/11/24 06:13:52;;;;;;;4.97;1.35;;;8.00;99.90;;;;;;5095889;28;20036;-89
2022/11/24 06:16:22;;;;;;;4.95;1.10;;;8.00;99.90;;;;;;5107420;28;21931;-89
2022/11/24 06:18:50;;;;;;;2.95;1.08;;;8.00;99.90;;;;;;5094166;28;20035;-89
2022/11/24 06:21:20;;;;;;;4.97;1.77;;;8.00;99.90;;;;;;5113509;28;20043;-89
2022/11/24 06:23:52;;;;;;;4.60;1.40;;;8.00;99.90;;;;;;5102034;28;20046;-89
2022/11/24 06:26:35;;;;;;;8.70;1.70;;;8.00;99.90;;;;;;5113481;28;20483;-89
2022/11/24 06:29:04;;;;;;;4.00;1.40;;;8.00;99.90;;;;;;5100761;28;20047;-89
2022/11/24 06:31:39;;;;;;;3.92;1.27;;;8.00;99.90;;;;;;5113968;28;20059;-89
2022/11/24 06:34:14;;;;;;;4.70;1.55;;;8.00;99.90;;;;;;5113289;28;20050;-89
2022/11/24 06:36:45;;;;;;;4.22;1.17;;;8.00;99.90;;;;;;5110201;28;20032;-89
2022/11/24 06:39:14;;;;;;;3.88;1.15;;;7.90;99.90;;;;;;5100156;28;20447;-88
2022/11/24 06:41:40;;;;;;;4.22;1.13;;;7.90;99.90;;;;;;5100879;28;20032;-88
2022/11/24 06:44:11;;;;;;;4.65;1.60;;;7.80;99.90;;;;;;5099701;28;20042;-89
2022/11/24 06:46:48;;;;;;;3.55;1.10;;;7.80;99.90;;;;;;5114657;28;20056;-89
2022/11/24 06:49:17;;;;;;;2.83;0.98;;;7.70;99.90;;;;;;5082273;28;20039;-89
2022/11/24 06:51:43;;;;;;;4.43;1.30;;;7.70;99.90;;;;;;5080768;28;20041;-89
2022/11/24 06:54:16;;;;;;;3.97;1.80;;;7.70;99.90;;;;;;5113419;28;20031;-89
2022/11/24 06:56:47;;;;;;;4.38;1.88;;;7.60;99.90;;;;;;5097080;28;20123;-89
2022/11/24 06:59:19;;;;;;;3.38;1.08;;;7.60;99.90;;;;;;5102581;28;20458;-89
2022/11/24 07:01:47;;;;;;;2.95;1.58;;;7.60;99.90;;;;;;5110117;28;20484;-89
2022/11/24 07:04:16;;;;;;;6.30;1.48;;;7.60;99.90;;;;;;5101372;28;20040;-90
2022/11/24 07:06:50;;;;;;;3.20;1.33;;;7.60;99.90;;;;;;5108847;28;20092;-91
2022/11/24 07:09:16;;;;;;;4.00;1.30;;;7.60;99.90;;;;;;5107987;28;20024;-89
2022/11/24 07:11:43;;;;;;;5.32;1.42;;;7.60;99.90;;;;;;5104500;28;20046;-89
2022/11/24 07:14:09;;;;;;;3.38;1.65;;;7.60;99.90;;;;;;5084976;28;20040;-90
2022/11/24 07:16:36;;;;;;;3.13;1.40;;;7.60;99.90;;;;;;5102842;28;20042;-90
2022/11/24 07:19:01;;;;;;;2.83;1.40;;;7.60;99.90;;;;;;5100085;28;20036;-90
2022/11/24 07:21:29;;;;;;;5.57;1.55;;;7.70;99.90;;;;;;5097560;28;20403;-91
2022/11/24 07:24:21;;;;;;;3.33;1.35;;;7.70;99.90;;;;;;5101569;28;20038;-89
2022/11/24 07:26:50;;;;;;;4.22;1.60;;;7.70;99.90;;;;;;5093794;28;20058;-89
2022/11/24 07:29:18;;;;;;;3.63;1.40;;;7.70;99.90;;;;;;5107055;27;20142;-90
2022/11/24 07:31:50;;;;;;;3.78;1.52;;;7.70;99.90;;;;;;5103934;27;20027;-89
2022/11/24 07:34:29;;;;;;;4.85;1.92;;;7.70;99.90;;;;;;5105994;28;20016;-91
2022/11/24 07:36:56;;;;;;;7.00;2.90;;;7.70;99.90;;;;;;5086099;28;20076;-89
2022/11/24 07:39:34;;;;;;;5.07;2.72;;;7.70;99.90;;;;;;5096115;28;20116;-89
2022/11/24 07:42:18;;;;;;;5.22;3.13;;;7.70;99.90;;;;;;5095594;28;20487;-89
2022/11/24 07:44:47;;;;;;;6.63;3.72;;;7.80;99.90;;;;;;5114411;27;20044;-88
2022/11/24 07:47:21;;;;;;;7.07;3.25;;;7.70;99.90;;;;;;5118083;27;20039;-88
2022/11/24 07:49:48;;;;;;;8.18;4.60;;;7.80;99.90;;;;;;5105997;28;20032;-88
2022/11/24 07:52:14;;;;;;;9.95;5.47;;;7.70;99.90;;;;;;5101099;28;20031;-87
2022/11/24 07:54:39;;;;;;;7.97;5.07;;;7.80;99.90;;;;;;5093999;28;20497;-89
2022/11/24 07:57:05;;;;;;;9.68;5.80;;;7.80;99.90;;;;;;5106592;28;20394;-88
2022/11/24 07:59:31;;;;;;;10.63;5.43;;;7.80;99.90;;;;;;5092546;28;20063;-87
2022/11/24 08:01:57;;;;;;;11.20;6.82;;;7.80;99.90;;;;;;5105652;27;20077;-89
2022/11/24 08:04:23;;;;;;;13.30;7.22;;;7.90;99.90;;;;;;5114386;27;20066;-88
2022/11/24 08:06:49;;;;;;;11.40;6.97;;;7.90;99.90;;;;;;5104919;28;20458;-88
2022/11/24 08:09:15;;;;;;;10.75;6.63;;;7.90;99.90;;;;;;5099571;28;20097;-89
2022/11/24 08:11:41;;;;;;;11.93;6.50;;;8.00;99.90;;;;;;5104264;28;20081;-88
2022/11/24 08:14:10;;;;;;;9.50;5.68;;;8.00;99.90;;;;;;5095725;28;20031;-87
2022/11/24 08:16:37;;;;;;;12.20;6.55;;;8.00;99.90;;;;;;5096348;28;20016;-88
2022/11/24 08:19:03;;;;;;;12.48;6.88;;;8.00;99.90;;;;;;5095192;28;20049;-86
2022/11/24 08:21:29;;;;;;;12.60;6.03;;;8.10;99.90;;;;;;5082138;28;20073;-87
2022/11/24 08:23:56;;;;;;;8.75;5.20;;;8.10;99.90;;;;;;5095462;28;20483;-88
2022/11/24 08:26:23;;;;;;;10.35;5.68;;;8.20;99.90;;;;;;5099897;28;20092;-87
2022/11/24 08:28:57;;;;;;;9.98;5.10;;;8.20;99.90;;;;;;5099948;28;20081;-88
2022/11/24 08:31:31;;;;;;;10.75;5.38;;;8.30;99.90;;;;;;5112965;28;20483;-87
2022/11/24 08:33:57;;;;;;;;;;;8.40;99.90;;;;;;5096773;28;20371;-87
2022/11/24 08:36:22;;;;;;;7.50;4.05;;;8.40;99.90;;;;;;5091912;28;19904;-87
2022/11/24 08:38:54;;;;;;;8.65;4.13;;;8.40;99.90;;;;;;5094045;28;20040;-87
2022/11/24 08:41:20;;;;;;;11.55;4.45;;;8.40;99.90;;;;;;5111903;28;20042;-87
2022/11/24 08:43:46;;;;;;;9.57;4.03;;;8.40;99.90;;;;;;5097921;28;20043;-88
2022/11/24 08:46:17;;;;;;;8.18;3.53;;;8.40;99.90;;;;;;5112528;28;20507;-87
2022/11/24 08:48:55;;;;;;;6.70;4.10;;;8.40;99.90;;;;;;5095668;28;20025;-87
2022/11/24 08:51:29;;;;;;;7.82;3.55;;;8.50;99.90;;;;;;5093301;28;20036;-88
2022/11/24 08:53:57;;;;;;;8.27;4.05;;;8.50;99.90;;;;;;5092219;28;20479;-88
2022/11/24 08:56:24;;;;;;;8.13;3.90;;;8.40;99.90;;;;;;5091534;28;20090;-89
2022/11/24 08:59:10;;;;;;;8.25;3.90;;;8.50;99.90;;;;;;5105659;28;20028;-87
2022/11/24 09:01:37;;;;;;;10.40;3.85;;;8.50;99.90;;;;;;5108342;28;20084;-88
2022/11/24 09:04:03;;;;;;;8.60;3.65;;;8.60;99.90;;;;;;5111731;28;20213;-88
2022/11/24 09:06:34;;;;;;;7.30;3.58;;;8.70;99.90;;;;;;5097203;28;20064;-88
2022/11/24 09:09:01;;;;;;;10.50;3.53;;;8.70;99.90;;;;;;5092486;28;20070;-88
2022/11/24 09:11:30;;;;;;;8.63;4.10;;;8.70;99.90;;;;;;5105337;28;20050;-88
2022/11/24 09:14:03;;;;;;;8.95;3.60;;;8.70;99.90;;;;;;5102874;28;20032;-88
2022/11/24 09:16:29;;;;;;;9.32;3.72;;;8.70;99.90;;;;;;5110047;28;20105;-90
2022/11/24 09:19:01;;;;;;;7.22;3.30;;;8.60;99.90;;;;;;5109026;28;20446;-88
2022/11/24 09:21:27;;;;;;;11.55;4.00;;;8.50;99.90;;;;;;5115262;28;20122;-87
2022/11/24 09:23:54;;;;;;;7.95;3.25;;;8.50;99.90;;;;;;5102915;28;20032;-88
2022/11/24 09:26:27;;;;;;;7.15;3.00;;;8.50;99.90;;;;;;5092416;28;20062;-88
2022/11/24 09:28:56;;;;;;;8.88;3.25;;;8.40;99.90;;;;;;5076915;28;20029;-89
2022/11/24 09:31:27;;;;;;;7.40;2.70;;;8.40;99.90;;;;;;5090747;28;20127;-89
2022/11/24 09:34:03;;;;;;;8.88;3.00;;;8.50;99.90;;;;;;5093856;28;20024;-89
2022/11/24 09:36:30;;;;;;;6.57;3.10;;;8.70;99.90;;;;;;5098865;28;20118;-89
2022/11/24 09:38:56;;;;;;;7.32;2.70;;;9.00;99.90;;;;;;5095962;28;20054;-89
2022/11/24 09:41:47;;;;;;;9.32;3.03;;;9.40;99.90;;;;;;5097653;28;20059;-89
2022/11/24 09:44:37;;;;;;;9.00;2.45;;;10.50;99.90;;;;;;5089175;28;20031;-89
2022/11/24 09:47:20;;;;;;;6.90;2.22;;;10.50;99.90;;;;;;5077572;28;20028;-88
2022/11/24 09:49:55;;;;;;;6.28;2.05;;;10.20;99.90;;;;;;5089035;28;20523;-89
2022/11/24 09:52:45;;;;;;;7.05;2.20;;;9.70;99.90;;;;;;5064458;28;20124;-88
2022/11/24 09:55:38;;;;;;;8.68;1.90;;;9.80;99.90;;;;;;5085617;28;20024;-88
2022/11/24 09:58:37;;;;;;;8.00;2.35;;;11.10;99.90;;;;;;5076172;28;20028;-89
2022/11/24 10:01:20;;;;;;;6.10;1.75;;;12.50;99.90;;;;;;5085992;28;20046;-89
2022/11/24 10:03:55;;;;;;;5.22;1.40;;;13.50;99.90;;;;;;5114132;28;20110;-89
2022/11/24 10:06:27;;;;;;;4.30;1.20;;;14.60;99.90;;;;;;5081838;28;20031;-88
2022/11/24 10:09:02;;;;;;;6.13;1.20;;;15.30;99.90;;;;;;5083264;28;20036;-91
2022/11/24 10:11:37;;;;;;;5.32;1.55;;;15.70;99.90;;;;;;5084539;28;20040;-89
2022/11/24 10:14:30;;;;;;;6.03;1.38;;;15.90;99.90;;;;;;5095387;28;20050;-89
2022/11/24 10:17:22;;;;;;;6.88;1.50;;;16.20;99.90;;;;;;5101177;28;20035;-89
2022/11/24 10:20:04;;;;;;;5.38;1.50;;;16.30;99.90;;;;;;5082900;28;20032;-89
2022/11/24 10:23:03;;;;;;;5.35;1.50;;;16.50;99.90;;;;;;5081957;28;20491;-89
2022/11/24 10:25:47;;;;;;;5.85;1.58;;;16.70;99.90;;;;;;5072139;28;20028;-90
2022/11/24 10:28:17;;;;;;;4.47;1.27;;;16.30;99.90;;;;;;5101510;28;20399;-89
2022/11/24 10:30:48;;;;;;;9.65;2.05;;;16.00;99.90;;;;;;5104704;27;20173;-89
2022/11/24 10:33:27;;;;;;;3.53;1.30;;;16.10;99.90;;;;;;5104443;27;20499;-89
2022/11/24 10:36:04;;;;;;;5.05;1.15;;;16.40;99.90;;;;;;5107133;27;20054;-90
2022/11/24 10:38:53;;;;;;;5.30;1.52;;;16.70;99.90;;;;;;5104920;27;20031;-89
2022/11/24 10:41:34;;;;;;;6.13;1.40;;;16.90;99.90;;;;;;5118367;27;20051;-89
2022/11/24 10:43:59;;;;;;;5.93;2.03;;;17.20;99.90;;;;;;5101622;27;20498;-89
2022/11/24 10:46:47;;;;;;;4.65;1.50;;;17.50;99.90;;;;;;5107474;27;20035;-89
2022/11/24 10:49:23;;;;;;;7.57;2.10;;;17.80;99.90;;;;;;5093994;27;20122;-89
2022/11/24 10:52:13;;;;;;;7.50;1.70;;;17.90;99.90;;;;;;5101839;27;20368;-89
2022/11/24 10:55:03;;;;;;;9.80;2.30;;;17.50;99.90;;;;;;5132843;27;20032;-89
2022/11/24 10:57:40;;;;;;;6.13;1.55;;;17.30;99.90;;;;;;5093823;28;20114;-87
2022/11/24 11:00:18;;;;;;;7.57;1.77;;;17.70;99.90;;;;;;5099508;28;20039;-89
2022/11/24 11:02:47;;;;;;;5.05;1.80;;;18.20;99.90;;;;;;5104797;27;20042;-88
2022/11/24 11:05:42;;;;;;;6.53;1.70;;;18.40;99.90;;;;;;5121638;27;20104;-91
2022/11/24 11:08:16;;;;;;;5.90;1.50;;;18.40;99.90;;;;;;5107955;28;20039;-88
2022/11/24 11:10:43;;;;;;;7.15;1.83;;;18.60;99.90;;;;;;5097223;28;20050;-89
2022/11/24 11:13:31;;;;;;;6.80;1.75;;;18.70;99.90;;;;;;5107854;28;20089;-88
2022/11/24 11:16:00;;;;;;;5.85;1.75;;;18.90;99.90;;;;;;5096442;28;20028;-90
2022/11/24 11:18:38;;;;;;;3.92;1.25;;;18.90;99.90;;;;;;5104977;27;20042;-91
2022/11/24 11:21:04;;;;;;;7.05;1.80;;;19.00;99.90;;;;;;5098114;28;20043;-91
2022/11/24 11:23:34;;;;;;;7.85;2.00;;;19.00;99.90;;;;;;5103901;28;20063;-90
2022/11/24 11:26:23;;;;;;;7.40;1.55;;;18.90;99.90;;;;;;5093012;28;20045;-91
2022/11/24 11:29:14;;;;;;;8.18;1.85;;;18.70;99.90;;;;;;5096865;28;20033;-90
2022/11/24 11:31:40;;;;;;;10.07;2.22;;;18.70;99.90;;;;;;5078152;28;20064;-90
2022/11/24 11:34:09;;;;;;;8.48;1.92;;;18.60;99.90;;;;;;5064840;28;20131;-90
2022/11/24 11:36:49;;;;;;;6.45;1.70;;;18.40;99.90;;;;;;5084869;28;20495;-89
2022/11/24 11:43:04;;;;;;;7.00;1.75;;;18.70;99.90;;;;;;5089563;28;20044;-90
2022/11/24 11:45:54;;;;;;;6.88;1.98;;;18.90;99.90;;;;;;5078311;28;20464;-89
2022/11/24 11:48:31;;;;;;;8.20;2.35;;;18.70;99.90;;;;;;5081615;28;20038;-89
2022/11/24 11:51:28;;;;;;;9.85;2.50;;;17.80;99.90;;;;;;5071995;28;20039;-89
2022/11/24 11:54:16;;;;;;;4.15;1.38;;;16.60;99.90;;;;;;5089311;28;20067;-90
2022/11/24 11:56:46;;;;;;;8.48;1.83;;;15.50;99.90;;;;;;5087113;28;20483;-90
2022/11/24 11:59:48;;;;;;;8.38;1.95;;;14.80;99.90;;;;;;5080652;28;20497;-89
2022/11/24 12:02:35;;;;;;;8.02;2.03;;;14.20;99.90;;;;;;5074916;28;20148;-90
2022/11/24 12:05:10;;;;;;;8.55;2.05;;;13.70;99.90;;;;;;5071420;28;20027;-89
2022/11/24 12:08:00;;;;;;;8.25;2.42;;;13.40;99.90;;;;;;5069257;28;20031;-90
2022/11/24 12:10:41;;;;;;;6.13;1.73;;;13.20;99.90;;;;;;5081533;28;20024;-90
2022/11/24 12:13:30;;;;;;;6.72;1.80;;;13.00;99.90;;;;;;5076951;28;20044;-89
2022/11/24 12:16:08;;;;;;;8.10;1.67;;;12.90;99.90;;;;;;5065279;28;20030;-90
2022/11/24 12:18:57;;;;;;;8.05;1.77;;;12.80;99.90;;;;;;5070287;28;20032;-90
2022/11/24 12:21:42;;;;;;;6.18;1.52;;;12.90;99.90;;;;;;5079334;28;20042;-89
2022/11/24 12:24:36;;;;;;;6.30;1.48;;;12.90;99.90;;;;;;5084701;28;20058;-90
2022/11/24 12:27:27;;;;;;;11.82;2.30;;;12.90;99.90;;;;;;5107520;28;20032;-89
2022/11/24 12:30:10;;;;;;;11.73;2.35;;;12.80;99.90;;;;;;5120715;28;20129;-89
2022/11/24 12:33:14;;;;;;;7.40;1.80;;;12.70;99.90;;;;;;5071432;28;20525;-89
2022/11/24 12:36:02;;;;;;;10.43;2.08;;;12.60;99.90;;;;;;5056076;28;20039;-88
2022/11/24 12:39:01;;;;;;;9.18;2.10;;;12.50;99.90;;;;;;5089332;28;20029;-91
2022/11/24 12:41:53;;;;;;;6.07;1.60;;;12.60;99.90;;;;;;5091896;28;20043;-89
2022/11/24 12:44:45;;;;;;;7.78;1.83;;;12.60;99.90;;;;;;5098264;28;20130;-89
2022/11/24 12:47:18;;;;;;;6.68;2.03;;;12.60;99.90;;;;;;5098563;28;20038;-90
2022/11/24 12:50:10;;;;;;;5.63;2.00;;;12.60;99.90;;;;;;5100423;28;20032;-90
2022/11/24 12:53:03;;;;;;;7.30;1.88;;;12.60;99.90;;;;;;5085402;28;20032;-88
2022/11/24 12:55:33;;;;;;;5.90;1.52;;;12.50;99.90;;;;;;5095682;28;20042;-90
2022/11/24 12:58:07;;;;;;;6.25;1.60;;;12.60;99.90;;;;;;5096271;28;20044;-89
2022/11/24 13:01:00;;;;;;;6.80;1.50;;;12.60;99.90;;;;;;5098749;28;20080;-88
2022/11/24 13:03:31;;;;;;;;;;;13.00;99.90;;;;;;5096576;28;20122;-89
2022/11/24 13:06:23;;;;;;;4.22;1.58;;;14.00;99.90;;;;;;5091733;28;19923;-90
2022/11/24 13:08:49;;;;;;;6.60;2.10;;;15.10;99.90;;;;;;5074809;28;20190;-90
2022/11/24 13:11:22;;;;;;;4.22;1.20;;;16.00;99.90;;;;;;5105770;28;20044;-89
2022/11/24 13:14:17;;;;;;;6.07;1.58;;;16.50;99.90;;;;;;5089148;28;20031;-91
2022/11/24 13:16:57;;;;;;;7.28;1.42;;;16.90;99.90;;;;;;5077532;28;20056;-90
2022/11/24 13:19:34;;;;;;;5.85;1.60;;;17.00;99.90;;;;;;5097052;27;20058;-88
2022/11/24 13:22:08;;;;;;;6.75;1.70;;;17.10;99.90;;;;;;5096285;28;20036;-90
2022/11/24 13:24:38;;;;;;;6.22;1.38;;;17.30;99.90;;;;;;5093788;28;20031;-87
2022/11/24 13:27:34;;;;;;;7.57;1.52;;;17.30;99.90;;;;;;5108208;27;20054;-89
2022/11/24 13:30:34;;;;;;;8.95;1.83;;;16.80;99.90;;;;;;5122971;27;20031;-89
2022/11/24 13:33:14;;;;;;;6.15;1.50;;;15.60;99.90;;;;;;5115246;27;20177;-90